EISG/SXL METAR and TAF weather

Enter ICAO airport designator
Station Type Date Time Source
EISG METAR 2018/04/21 11:30 UTC NOAA

EISG 211130Z 16007KT 120V230 CAVOK 14/06 Q1016


Station Type Date Time Source
EISG Decoded METAR 2018/04/21 11:30 UTC NOAA

Station name not available
Apr 21, 2018 - 07:30 AM EDT / 2018.04.21 1130 UTC
Wind: from the SSE (160 degrees) at 8 MPH (7 KT) (direction variable):0
Visibility: greater than 7 mile(s):0
Temperature: 57 F (14 C)
Dew Point: 42 F (6 C)
Relative Humidity: 58%
Pressure (altimeter): 30.00 in. Hg (1016 hPa)
ob: EISG 211130Z 16007KT 120V230 CAVOK 14/06 Q1016
cycle: 11

Station Type Date Time Source
EISG TAF UTC NOAA

Error!


Example: see airport list